Nearby METAR Reports

 

KCIC - Chico Municipal, California, USA
Distance from station: SSW 12mi, 20km
Updated: Wed, 29-May-2024 4:55am PDT
Clear
Clear
 Wind from NW
Wind: NW 15 mph , 24 km/h
Temperature: 63°F , 17°C
Dew Point: 39°F , 4°C
Humidity: 42%
Barometer: 30.04 inHg , 1017.3 hPa
Clouds: Clear
Visibility: 10 miles , 16 km
2024/05/29 11:55 KCIC 291155Z AUTO 31013KT 10SM CLR 17/04 A3004 RMK AO1
KOVE - Oroville, California, USA
Distance from station: SSE 31mi, 50km
Updated: Wed, 29-May-2024 4:53am PDT
Clear
Clear
 Wind from calm
Wind: Calm
Temperature: 63°F , 17°C
Dew Point: 46°F , 8°C
Humidity: 56%
Barometer: 30.03 inHg , 1016.9 hPa
Clouds: Clear
Visibility: 10 miles , 16 km
2024/05/29 11:53 KOVE 291153Z AUTO 00000KT 10SM CLR 17/08 A3003 RMK AO2 SLP171 T01670083 10244 20167 53004
 
KRBL - Red Bluff, California, USA
Distance from station: WNW 31mi, 50km
Updated: Wed, 29-May-2024 4:54am PDT
Clear
Clear
 Wind from NW
Wind: NW 14 mph , 22 km/h, Gust: 26 mph , 43 km/h
Temperature: 64°F , 18°C
Dew Point: 37°F , 3°C
Humidity: 37%
Barometer: 30.07 inHg , 1018.3 hPa
Clouds: Clear
Visibility: 10 miles , 16 km
2024/05/29 11:54 KRBL 291154Z AUTO 31012G23KT 10SM CLR 18/03 A3007 RMK AO2 SLP178 T01780028 10222 20178 53010
KRDD - Redding, California, USA
Distance from station: NW 50mi, 80km
Updated: Wed, 29-May-2024 4:53am PDT
Clear
Clear
 Wind from NNW
Wind: NNW 10 mph , 17 km/h
Temperature: 66°F , 19°C
Dew Point: 39°F , 4°C
Humidity: 37%
Barometer: 30.08 inHg , 1018.6 hPa
Clouds: Clear
Visibility: 10 miles , 16 km
2024/05/29 11:53 KRDD 291153Z AUTO 34009KT 10SM CLR 19/04 A3008 RMK AO2 SLP180 T01890044 10222 20183 53014
 
KMYV - Marysville, California, USA
Distance from station: S 59mi, 95km
Updated: Wed, 29-May-2024 4:53am PDT
Clear
Clear
 Wind from NW
Wind: NW 6 mph , 9 km/h
Temperature: 57°F , 14°C
Dew Point: 48°F , 9°C
Humidity: 72%
Barometer: 30.04 inHg , 1017.3 hPa
Clouds: Clear
Visibility: 10 miles , 16 km
2024/05/29 11:53 KMYV 291153Z AUTO 31005KT 10SM CLR 14/09 A3004 RMK AO2 SLP174 T01440089 10217 20128 53012
KBAB - Beale Afb/Marysv, California, USA
Distance from station: SSE 59mi, 96km
Updated: Wed, 29-May-2024 4:55am PDT
Clear
Clear
 Wind from NNW
Wind: NNW 6 mph , 9 km/h
Temperature: 57°F , 14°C
Dew Point: 50°F , 10°C
Humidity: 77%
Barometer: 30.02 inHg , 1016.6 hPa
Clouds: Clear
Visibility: 7 miles , 11 km
2024/05/29 11:55 KBAB 291155Z 33005KT 7SM CLR 14/10 A3002 RMK AO2A SLP168 T01440102 10213 20141 53011 $
 
KGOO - Grass Valley, California, USA
Distance from station: SE 63mi, 102km
Updated: Wed, 29-May-2024 4:55am PDT
Clear
Clear
 Wind from calm
Wind: Calm
Temperature: 59°F , 15°C
Dew Point: 46°F , 8°C
Humidity: 63%
Barometer: 30.08 inHg , 1018.6 hPa
Clouds: Clear
Visibility: 10 miles , 16 km
2024/05/29 11:55 KGOO 291155Z AUTO 00000KT 10SM CLR 15/08 A3008 RMK A01
KBLU - Emigrant Gap, California, USA
Distance from station: SE 71mi, 115km
Updated: Wed, 29-May-2024 4:52am PDT
Clear
Clear
 Wind from E
Wind: E 3 mph , 6 km/h
Temperature: 52°F , 11°C
Dew Point: 37°F , 3°C
Humidity: 58%
Barometer: 30.18 inHg , 1022 hPa
Clouds: Clear
Visibility: 10 miles , 16 km
2024/05/29 11:52 KBLU 291152Z AUTO 09003KT 10SM CLR 11/03 A3018 RMK AO2 SLP152 T01110033 10122 20106 55001
 
KLHM - Lincoln, California, USA
Distance from station: SSE 74mi, 119km
Updated: Wed, 29-May-2024 4:55am PDT
Clear
Clear
 Wind from calm
Wind: Calm
Temperature: 52°F , 11°C
Dew Point: 45°F , 7°C
Humidity: 77%
Barometer: 30.01 inHg , 1016.3 hPa
Clouds: Clear
Visibility: 10 miles , 16 km
2024/05/29 11:55 KLHM 291155Z AUTO 00000KT 10SM CLR 11/07 A3001 RMK AO1
KAUN - Auburn Muni, California, USA
Distance from station: SSE 77mi, 123km
Updated: Wed, 29-May-2024 4:55am PDT
Clear
Clear
 Wind from calm
Wind: Calm
Temperature: 59°F , 15°C
Dew Point: 50°F , 10°C
Humidity: 72%
Barometer: 30.05 inHg , 1017.6 hPa
Clouds: Clear
Visibility: 10 miles , 16 km
2024/05/29 11:55 KAUN 291155Z AUTO 00000KT 10SM CLR 15/10 A3005 RMK A01
 
KO54 - Weaverville, California, USA
Distance from station: NW 84mi, 135km
Updated: Tue, 28-May-2024 9:45pm PDT
NOT Current
Clear
Clear
 Wind from SSW
Wind: SSW 10 mph , 17 km/h, Gust: 18 mph , 30 km/h
Temperature: 57°F , 14°C
Dew Point: 39°F , 4°C
Humidity: 51%
Barometer: 30.12 inHg , 1020 hPa
Clouds: Clear
Visibility: 10 miles , 16 km
2024/05/29 04:45 KO54 290445Z AUTO 20009G16KT 10SM CLR 14/04 A3012 RMK A01
KSMF - Sacramento/Metro, California, USA
Distance from station: S 86mi, 139km
Updated: Wed, 29-May-2024 4:53am PDT
Clear
Clear
 Wind from NNW
Wind: NNW 3 mph , 6 km/h
Temperature: 55°F , 13°C
Dew Point: 48°F , 9°C
Humidity: 77%
Barometer: 30.01 inHg , 1016.3 hPa
Clouds: Clear
Visibility: 10 miles , 16 km
2024/05/29 11:53 KSMF 291153Z 33003KT 10SM CLR 13/09 A3001 RMK AO2 SLP162 T01280089 10194 20128 53012
 
KMCC - Mcclellan Afb, California, USA
Distance from station: SSE 90mi, 145km
Updated: Wed, 29-May-2024 4:55am PDT
Few Clouds
Few Clouds
 Wind from calm
Wind: Calm
Temperature: 59°F , 15°C
Dew Point: 46°F , 8°C
Humidity: 63%
Barometer: 30.01 inHg , 1016.3 hPa
Clouds: Few Clouds
Visibility: 10 miles , 16 km
Cloud details: Few Clouds 5000 ft
2024/05/29 11:55 KMCC 291155Z AUTO 00000KT 10SM FEW050 15/08 A3001 RMK AO2
KTRK - Truckee Tahoe, California, USA
Distance from station: ESE 96mi, 155km
Updated: Wed, 29-May-2024 4:55am PDT
Clear
Clear
 Wind from calm
Wind: Calm
Temperature: 34°F , 1°C
Dew Point: 32°F , 0°C
Humidity: 93%
Barometer: 30.22 inHg , 1023.4 hPa
Clouds: Clear
Visibility: 10 miles , 16 km
2024/05/29 11:55 KTRK 291155Z AUTO 00000KT 10SM CLR 01/00 A3022 RMK AO2
 
KUKI - Ukiah, California, USA
Distance from station: SW 97mi, 156km
Updated: Wed, 29-May-2024 4:56am PDT
Clear
Clear
 Wind from NE
Wind: NE 5 mph , 7 km/h
Temperature: 54°F , 12°C
Dew Point: 43°F , 6°C
Humidity: 67%
Barometer: 30.14 inHg , 1020.7 hPa
Clouds: Clear
Visibility: 10 miles , 16 km
2024/05/29 11:56 KUKI 291156Z AUTO 05004KT 10SM CLR 12/06 A3014 RMK AO2 SLP198 T01170056 10167 20117 51009
KEDU - Davis, California, USA
Distance from station: S 97mi, 157km
Updated: Wed, 29-May-2024 4:55am PDT
Clear
Clear
 
Temperature: 59°F , 15°C
Dew Point: 52°F , 11°C
Humidity: 77%
Barometer: 30.02 inHg , 1016.6 hPa
Clouds: Clear
Visibility: 10 miles , 16 km
2024/05/29 11:55 KEDU 291155Z AUTO 10SM CLR 15/11 A3002 RMK AO1
 
KMHR - Mather Field, California, USA
Distance from station: SSE 100mi, 161km
Updated: Wed, 29-May-2024 4:55am PDT
Clear
Clear
 Wind from SE
Wind: SE 6 mph , 9 km/h
Temperature: 52°F , 11°C
Dew Point: 46°F , 8°C
Humidity: 82%
Barometer: 30.00 inHg , 1015.9 hPa
Clouds: Clear
Visibility: 10 miles , 16 km
2024/05/29 11:55 KMHR 291155Z AUTO 13005KT 10SM CLR 11/08 A3000 RMK A01
KMHS - Mount Shasta, California, USA
Distance from station: NNW 100mi, 161km
Updated: Wed, 29-May-2024 3:56am PDT
Clear
Clear
 
Temperature: 48°F , 9°C
Dew Point: 36°F , 2°C
Humidity: 62%
Barometer: 30.22 inHg , 1023.4 hPa
Clouds: Clear
2024/05/29 10:56 KMHS 291056Z AUTO CLR 09/02 A3022 RMK AO2 SLP232 T00890022
 
KRTS - Reno/Stead, Nevada, USA
Distance from station: E 100mi, 161km
Updated: Wed, 29-May-2024 4:55am PDT
Clear
Clear
 Wind from NNW
Wind: NNW 6 mph , 9 km/h
Temperature: 46°F , 8°C
Wind Chill: 43°F , 6°C
Dew Point: 37°F , 3°C
Humidity: 71%
Barometer: 30.17 inHg , 1021.7 hPa
Clouds: Clear
Visibility: 10 miles , 16 km
2024/05/29 11:55 KRTS 291155Z AUTO 33005KT 10SM CLR 08/03 A3017 RMK AO2
KSAC - Sacramento, California, USA
Distance from station: S 100mi, 162km
Updated: Wed, 29-May-2024 4:53am PDT
Clear
Clear
 Wind from calm
Wind: Calm
Temperature: 57°F , 14°C
Dew Point: 46°F , 8°C
Humidity: 67%
Barometer: 30.01 inHg , 1016.3 hPa
Clouds: Clear
Visibility: 10 miles , 16 km
2024/05/29 11:53 KSAC 291153Z AUTO 00000KT 10SM CLR 14/08 A3001 RMK AO2 SLP162 T01390083 10172 20139 53006